createdAt,value
2022-09-23T00:00:20.785Z,83.26
2022-09-23T00:01:17.845Z,83.26
2022-09-23T00:02:17.787Z,83.26
2022-09-23T00:03:17.733Z,83.26
2022-09-23T00:04:17.726Z,83.36
2022-09-23T00:05:17.721Z,83.36
2022-09-23T00:06:17.697Z,83.47
2022-09-23T00:07:17.706Z,83.47
2022-09-23T00:08:17.668Z,83.47
2022-09-23T00:09:17.657Z,83.47
2022-09-23T00:10:17.638Z,83.47
2022-09-23T00:11:17.676Z,83.36
2022-09-23T00:12:17.618Z,83.36
2022-09-23T00:13:17.598Z,83.47
2022-09-23T00:14:17.588Z,83.61
2022-09-23T00:15:17.570Z,83.61
2022-09-23T00:16:17.591Z,83.50
2022-09-23T00:17:17.609Z,83.50
2022-09-23T00:18:17.530Z,83.09
2022-09-23T00:19:20.518Z,82.98
2022-09-23T00:20:20.519Z,82.95
2022-09-23T00:21:17.488Z,82.78
2022-09-23T00:22:17.480Z,82.68
2022-09-23T00:23:17.520Z,82.54
2022-09-23T00:24:17.452Z,82.54
2022-09-23T00:25:17.440Z,82.54
2022-09-23T00:26:17.425Z,82.78
2022-09-23T00:27:17.412Z,82.89
2022-09-23T00:28:17.401Z,82.98
2022-09-23T00:29:17.410Z,82.98
2022-09-23T00:30:17.373Z,82.98
2022-09-23T00:31:17.452Z,83.09
2022-09-23T00:32:17.344Z,83.09
2022-09-23T00:33:17.323Z,83.09
2022-09-23T00:34:17.365Z,82.89
2022-09-23T00:35:17.303Z,82.98
2022-09-23T00:36:17.295Z,82.98
2022-09-23T00:37:17.272Z,82.98
2022-09-23T00:38:17.267Z,82.98
2022-09-23T00:39:20.277Z,82.98
2022-09-23T00:40:20.287Z,83.09
2022-09-23T00:41:17.223Z,82.98
2022-09-23T00:42:17.206Z,82.98
2022-09-23T00:43:17.195Z,82.78
2022-09-23T00:44:17.207Z,82.89
2022-09-23T00:45:17.194Z,82.89
2022-09-23T00:46:17.182Z,82.89
2022-09-23T00:47:17.138Z,82.89
2022-09-23T00:48:17.126Z,82.78
2022-09-23T00:49:17.107Z,82.89
2022-09-23T00:50:17.120Z,82.89
2022-09-23T00:51:17.088Z,82.92
2022-09-23T00:52:17.078Z,82.98
2022-09-23T00:53:17.064Z,82.92
2022-09-23T00:54:17.039Z,83.03
2022-09-23T00:55:17.090Z,83.13
2022-09-23T00:56:17.028Z,83.13
2022-09-23T00:57:16.999Z,83.13
2022-09-23T00:58:16.989Z,83.13
2022-09-23T00:59:19.994Z,83.13
2022-09-23T01:00:20.040Z,83.13
2022-09-23T01:01:16.984Z,83.03
2022-09-23T01:02:17.001Z,82.92
2022-09-23T01:03:16.921Z,82.92
2022-09-23T01:04:16.903Z,82.82
2022-09-23T01:05:16.894Z,82.82
2022-09-23T01:06:16.910Z,82.71
2022-09-23T01:07:16.862Z,82.71
2022-09-23T01:08:16.849Z,82.82
2022-09-23T01:09:16.842Z,82.82
2022-09-23T01:10:16.825Z,82.82
2022-09-23T01:11:16.813Z,82.61
2022-09-23T01:12:16.833Z,82.61
2022-09-23T01:13:16.784Z,82.61
2022-09-23T01:14:16.794Z,82.61
2022-09-23T01:15:16.758Z,82.61
2022-09-23T01:16:16.827Z,82.61
2022-09-23T01:17:16.755Z,82.61
2022-09-23T01:18:16.714Z,82.51
2022-09-23T01:19:19.715Z,82.61
2022-09-23T01:20:19.754Z,82.61
2022-09-23T01:21:16.674Z,82.71
2022-09-23T01:22:16.666Z,82.71
2022-09-23T01:23:16.647Z,82.71
2022-09-23T01:24:16.635Z,82.71
2022-09-23T01:25:16.637Z,82.71
2022-09-23T01:26:16.635Z,82.71
2022-09-23T01:27:16.608Z,82.71
2022-09-23T01:28:16.584Z,82.71
2022-09-23T01:29:16.567Z,82.71
2022-09-23T01:30:16.580Z,82.82
2022-09-23T01:31:16.581Z,82.75
2022-09-23T01:32:16.527Z,82.75
2022-09-23T01:33:16.518Z,82.65
2022-09-23T01:34:16.531Z,82.51
2022-09-23T01:35:16.521Z,82.55
2022-09-23T01:36:16.469Z,82.55
2022-09-23T01:37:16.459Z,82.55
2022-09-23T01:38:16.453Z,82.55
2022-09-23T01:39:19.430Z,82.45
2022-09-23T01:40:19.529Z,82.34
2022-09-23T01:41:16.412Z,82.34
2022-09-23T01:42:16.389Z,82.24
2022-09-23T01:43:16.381Z,82.24
2022-09-23T01:44:16.360Z,82.14
2022-09-23T01:45:16.394Z,82.03
2022-09-23T01:46:16.510Z,82.14
2022-09-23T01:47:16.329Z,82.14
2022-09-23T01:48:16.347Z,82.14
2022-09-23T01:49:16.300Z,82.24
2022-09-23T01:50:16.291Z,82.34
2022-09-23T01:51:16.283Z,82.45
2022-09-23T01:52:16.282Z,82.45
2022-09-23T01:53:16.243Z,82.55
2022-09-23T01:54:16.232Z,82.59
2022-09-23T01:55:16.224Z,82.69
2022-09-23T01:56:16.235Z,82.69
2022-09-23T01:57:16.214Z,82.59
2022-09-23T01:58:16.184Z,82.48
2022-09-23T01:59:19.166Z,82.59
2022-09-23T02:00:19.164Z,82.59
2022-09-23T02:01:16.219Z,82.59
2022-09-23T02:02:16.195Z,82.48
2022-09-23T02:03:16.116Z,82.48
2022-09-23T02:04:16.097Z,82.38
2022-09-23T02:05:16.085Z,82.48
2022-09-23T02:06:16.066Z,82.38
2022-09-23T02:07:16.088Z,82.48
2022-09-23T02:08:16.037Z,82.69
2022-09-23T02:09:16.044Z,82.69
2022-09-23T02:10:16.017Z,82.73
2022-09-23T02:11:16.012Z,82.73
2022-09-23T02:12:16.018Z,82.83
2022-09-23T02:13:16.009Z,82.73
2022-09-23T02:14:15.965Z,82.73
2022-09-23T02:15:15.980Z,82.62
2022-09-23T02:16:15.969Z,82.42
2022-09-23T02:17:15.950Z,82.31
2022-09-23T02:18:15.941Z,82.10
2022-09-23T02:19:18.903Z,81.90
2022-09-23T02:20:18.893Z,81.70
2022-09-23T02:21:15.871Z,81.49
2022-09-23T02:22:15.858Z,81.28
2022-09-23T02:23:15.842Z,81.07
2022-09-23T02:24:15.853Z,80.97
2022-09-23T02:25:15.819Z,80.76
2022-09-23T02:26:15.801Z,80.66
2022-09-23T02:27:15.790Z,80.56
2022-09-23T02:28:15.801Z,80.56
2022-09-23T02:29:15.771Z,80.42
2022-09-23T02:30:15.741Z,80.35
2022-09-23T02:31:15.733Z,80.32
2022-09-23T02:32:15.720Z,80.21
2022-09-23T02:33:15.774Z,80.21
2022-09-23T02:34:15.696Z,80.11
2022-09-23T02:35:15.703Z,80.00
2022-09-23T02:36:15.664Z,80.00
2022-09-23T02:37:15.656Z,79.90
2022-09-23T02:38:15.634Z,79.90
2022-09-23T02:39:18.674Z,79.80
2022-09-23T02:40:18.668Z,79.80
2022-09-23T02:41:15.608Z,79.80
2022-09-23T02:42:15.587Z,79.80
2022-09-23T02:43:15.576Z,79.69
2022-09-23T02:44:15.555Z,79.80
2022-09-23T02:45:15.711Z,79.80
2022-09-23T02:46:15.596Z,79.80
2022-09-23T02:47:15.519Z,79.80
2022-09-23T02:48:15.507Z,79.90
2022-09-23T02:49:15.496Z,79.90
2022-09-23T02:50:15.477Z,80.00
2022-09-23T02:51:15.498Z,80.00
2022-09-23T02:52:15.447Z,80.11
2022-09-23T02:53:15.437Z,80.11
2022-09-23T02:54:15.420Z,80.11
2022-09-23T02:55:15.476Z,80.21
2022-09-23T02:56:15.397Z,80.21
2022-09-23T02:57:15.379Z,80.21
2022-09-23T02:58:15.373Z,80.32
2022-09-23T02:59:18.351Z,80.32
2022-09-23T03:00:18.380Z,80.42
2022-09-23T03:01:15.554Z,80.52
2022-09-23T03:02:15.369Z,80.52
2022-09-23T03:03:15.299Z,80.52
2022-09-23T03:04:15.281Z,80.62
2022-09-23T03:05:15.270Z,80.62
2022-09-23T03:06:15.260Z,80.62
2022-09-23T03:07:15.281Z,80.73
2022-09-23T03:08:15.233Z,80.73
2022-09-23T03:09:15.222Z,80.52
2022-09-23T03:10:15.202Z,80.42
2022-09-23T03:11:15.192Z,80.42
2022-09-23T03:12:15.185Z,80.42
2022-09-23T03:13:15.203Z,80.42
2022-09-23T03:14:15.152Z,80.52
2022-09-23T03:15:15.143Z,80.52
2022-09-23T03:16:15.309Z,80.62
2022-09-23T03:17:15.126Z,80.62
2022-09-23T03:18:15.145Z,80.62
2022-09-23T03:19:18.111Z,80.73
2022-09-23T03:20:18.088Z,80.73
2022-09-23T03:21:15.055Z,80.73
2022-09-23T03:22:15.047Z,80.73
2022-09-23T03:23:15.033Z,80.73
2022-09-23T03:24:15.047Z,80.73
2022-09-23T03:25:15.054Z,80.73
2022-09-23T03:26:14.990Z,80.73
2022-09-23T03:27:14.978Z,80.83
2022-09-23T03:28:14.977Z,80.83
2022-09-23T03:29:14.946Z,80.93
2022-09-23T03:30:14.934Z,81.04
2022-09-23T03:31:15.069Z,81.04
2022-09-23T03:32:14.907Z,81.04
2022-09-23T03:33:14.901Z,81.07
2022-09-23T03:34:14.877Z,81.07
2022-09-23T03:35:14.868Z,81.07
2022-09-23T03:36:14.847Z,81.18
2022-09-23T03:37:14.868Z,81.38
2022-09-23T03:38:14.835Z,81.28
2022-09-23T03:39:17.815Z,81.38
2022-09-23T03:40:17.854Z,81.38
2022-09-23T03:41:14.792Z,81.38
2022-09-23T03:42:14.799Z,81.28
2022-09-23T03:43:14.789Z,81.28
2022-09-23T03:44:14.750Z,81.18
2022-09-23T03:45:14.753Z,81.18
2022-09-23T03:46:14.788Z,81.18
2022-09-23T03:47:14.715Z,81.18
2022-09-23T03:48:14.724Z,81.18
2022-09-23T03:49:14.696Z,81.18
2022-09-23T03:50:14.664Z,81.28
2022-09-23T03:51:14.659Z,81.38
2022-09-23T03:52:14.644Z,81.28
2022-09-23T03:53:14.696Z,81.38
2022-09-23T03:54:14.612Z,81.38
2022-09-23T03:55:14.604Z,81.38
2022-09-23T03:56:14.584Z,81.38
2022-09-23T03:57:14.572Z,81.28
2022-09-23T03:58:14.556Z,81.28
2022-09-23T03:59:17.610Z,81.28
2022-09-23T04:00:17.544Z,81.38
2022-09-23T04:01:14.577Z,81.38
2022-09-23T04:02:14.566Z,81.38
2022-09-23T04:03:14.493Z,81.42
2022-09-23T04:04:14.474Z,81.42
2022-09-23T04:05:14.486Z,81.42
2022-09-23T04:06:14.445Z,81.42
2022-09-23T04:07:14.436Z,81.42
2022-09-23T04:08:14.416Z,81.42
2022-09-23T04:09:14.406Z,81.42
2022-09-23T04:10:14.594Z,81.32
2022-09-23T04:11:14.376Z,81.32
2022-09-23T04:12:14.365Z,81.32
2022-09-23T04:13:14.347Z,81.32
2022-09-23T04:14:14.336Z,81.32
2022-09-23T04:15:14.321Z,81.21
2022-09-23T04:16:14.392Z,81.21
2022-09-23T04:17:14.296Z,81.32
2022-09-23T04:18:14.282Z,81.21
2022-09-23T04:19:17.268Z,81.21
2022-09-23T04:20:17.270Z,81.32
2022-09-23T04:21:14.239Z,81.32
2022-09-23T04:22:14.248Z,81.42
2022-09-23T04:23:14.211Z,81.42
2022-09-23T04:24:14.190Z,81.42
2022-09-23T04:25:14.179Z,81.32
2022-09-23T04:26:14.190Z,81.32
2022-09-23T04:27:14.192Z,81.32
2022-09-23T04:28:14.140Z,81.21
2022-09-23T04:29:14.129Z,81.21
2022-09-23T04:30:14.111Z,81.32
2022-09-23T04:31:14.150Z,81.21
2022-09-23T04:32:14.080Z,81.21
2022-09-23T04:33:14.101Z,81.11
2022-09-23T04:34:14.082Z,81.11
2022-09-23T04:35:14.043Z,81.11
2022-09-23T04:36:14.034Z,81.11
2022-09-23T04:37:14.030Z,81.11
2022-09-23T04:38:14.004Z,81.11
2022-09-23T04:39:17.012Z,81.21
2022-09-23T04:40:17.009Z,81.32
2022-09-23T04:41:13.965Z,81.32
2022-09-23T04:42:13.944Z,81.42
2022-09-23T04:43:13.935Z,81.52
2022-09-23T04:44:13.948Z,81.52
2022-09-23T04:45:13.905Z,81.52
2022-09-23T04:46:13.978Z,81.52
2022-09-23T04:47:13.876Z,81.42
2022-09-23T04:48:13.867Z,81.42
2022-09-23T04:49:13.902Z,81.42
2022-09-23T04:50:13.832Z,81.42
2022-09-23T04:51:13.823Z,81.42
2022-09-23T04:52:13.805Z,81.32
2022-09-23T04:53:13.798Z,81.32
2022-09-23T04:54:13.777Z,81.32
2022-09-23T04:55:13.798Z,81.32
2022-09-23T04:56:13.747Z,81.21
2022-09-23T04:57:13.738Z,81.11
2022-09-23T04:58:13.740Z,81.01
2022-09-23T04:59:16.777Z,80.80
2022-09-23T05:00:16.709Z,80.90
2022-09-23T05:01:13.711Z,80.90
2022-09-23T05:02:13.704Z,80.90
2022-09-23T05:03:13.650Z,80.90
2022-09-23T05:04:13.638Z,80.90
2022-09-23T05:05:13.780Z,80.90
2022-09-23T05:06:13.611Z,80.90
2022-09-23T05:07:13.589Z,80.90
2022-09-23T05:08:13.587Z,80.90
2022-09-23T05:09:13.560Z,80.90
2022-09-23T05:10:13.568Z,80.90
2022-09-23T05:11:13.560Z,81.01
2022-09-23T05:12:13.531Z,80.90
2022-09-23T05:13:13.511Z,80.90
2022-09-23T05:14:13.503Z,80.80
2022-09-23T05:15:13.482Z,80.80
2022-09-23T05:16:13.587Z,80.70
2022-09-23T05:17:13.453Z,80.70
2022-09-23T05:18:15.978Z,80.60
2022-09-23T05:19:16.433Z,80.49
2022-09-23T05:20:16.430Z,80.39
2022-09-23T05:21:13.405Z,80.18
2022-09-23T05:22:13.434Z,80.08
2022-09-23T05:23:13.374Z,79.87
2022-09-23T05:24:13.356Z,79.87
2022-09-23T05:25:13.345Z,79.77
2022-09-23T05:26:13.335Z,79.77
2022-09-23T05:27:13.314Z,79.46
2022-09-23T05:28:13.325Z,79.36
2022-09-23T05:29:13.286Z,79.25
2022-09-23T05:30:13.279Z,79.15
2022-09-23T05:31:18.703Z,79.36
2022-09-23T05:32:14.247Z,79.36
2022-09-23T05:33:13.275Z,79.36
2022-09-23T05:34:13.227Z,79.22
2022-09-23T05:35:13.223Z,79.11
2022-09-23T05:36:13.195Z,79.11
2022-09-23T05:37:13.178Z,79.11
2022-09-23T05:38:13.165Z,79.22
2022-09-23T05:39:16.179Z,79.22
2022-09-23T05:40:16.202Z,79.22
2022-09-23T05:41:13.126Z,79.22
2022-09-23T05:42:13.107Z,79.11
2022-09-23T05:43:13.089Z,79.32
2022-09-23T05:44:13.106Z,79.32
2022-09-23T05:45:13.073Z,79.32
2022-09-23T05:46:13.249Z,79.32
2022-09-23T05:47:13.030Z,79.32
2022-09-23T05:48:13.031Z,79.42
2022-09-23T05:49:13.072Z,79.52
2022-09-23T05:50:12.989Z,79.52
2022-09-23T05:51:13.002Z,79.63
2022-09-23T05:52:13.146Z,79.63
2022-09-23T05:53:12.950Z,79.73
2022-09-23T05:54:12.942Z,79.73
2022-09-23T05:55:12.921Z,79.83
2022-09-23T05:56:12.911Z,79.94
2022-09-23T05:57:12.902Z,79.94
2022-09-23T05:58:12.918Z,79.94
2022-09-23T05:59:15.869Z,79.94
2022-09-23T06:00:15.872Z,79.94
2022-09-23T06:01:12.843Z,79.94
2022-09-23T06:02:12.903Z,80.04
2022-09-23T06:03:12.873Z,79.83
2022-09-23T06:04:12.833Z,79.49
2022-09-23T06:05:12.793Z,79.49
2022-09-23T06:06:12.775Z,79.49
2022-09-23T06:07:12.753Z,79.49
2022-09-23T06:08:12.748Z,79.59
2022-09-23T06:09:12.758Z,79.59
2022-09-23T06:10:12.732Z,79.59
2022-09-23T06:11:12.695Z,79.69
2022-09-23T06:12:12.687Z,79.80
2022-09-23T06:13:12.700Z,79.80
2022-09-23T06:14:12.663Z,79.80
2022-09-23T06:15:12.644Z,79.90
2022-09-23T06:16:12.685Z,79.80
2022-09-23T06:17:12.616Z,79.80
2022-09-23T06:18:12.627Z,79.66
2022-09-23T06:19:15.597Z,79.66
2022-09-23T06:20:15.617Z,79.66
2022-09-23T06:21:12.558Z,79.66
2022-09-23T06:22:12.607Z,79.55
2022-09-23T06:23:12.537Z,79.66
2022-09-23T06:24:17.177Z,79.55
2022-09-23T06:25:13.507Z,79.62
2022-09-23T06:26:12.497Z,79.62
2022-09-23T06:27:12.478Z,79.62
2022-09-23T06:28:12.534Z,79.62
2022-09-23T06:29:12.480Z,79.62
2022-09-23T06:30:12.440Z,79.62
2022-09-23T06:31:13.768Z,79.58
2022-09-23T06:32:12.410Z,79.58
2022-09-23T06:33:12.400Z,79.58
2022-09-23T06:34:13.659Z,79.55
2022-09-23T06:35:23.746Z,79.55
2022-09-23T06:36:15.790Z,79.55
2022-09-23T06:37:19.752Z,79.61
2022-09-23T06:38:13.330Z,79.51
2022-09-23T06:39:15.587Z,79.47
2022-09-23T06:40:15.334Z,79.58
2022-09-23T06:41:12.293Z,79.58
2022-09-23T06:42:12.332Z,79.54
2022-09-23T06:43:12.261Z,79.64
2022-09-23T06:44:12.254Z,79.75
2022-09-23T06:45:12.244Z,79.91
2022-09-23T06:46:12.264Z,80.02
2022-09-23T06:47:12.214Z,80.12
2022-09-23T06:48:12.224Z,80.19
2022-09-23T06:49:12.215Z,80.39
2022-09-23T06:50:12.174Z,80.49
2022-09-23T06:51:12.155Z,80.49
2022-09-23T06:52:12.167Z,80.77
2022-09-23T06:53:12.172Z,80.77
2022-09-23T06:54:12.133Z,81.07
2022-09-23T06:55:12.106Z,81.48
2022-09-23T06:56:12.099Z,81.45
2022-09-23T06:57:12.075Z,81.34
2022-09-23T06:58:12.066Z,81.45
2022-09-23T06:59:15.070Z,81.20
2022-09-23T07:00:15.081Z,81.62
2022-09-23T07:01:12.037Z,81.71
2022-09-23T07:02:12.168Z,81.71
2022-09-23T07:03:11.999Z,81.68
2022-09-23T07:04:11.978Z,81.99
2022-09-23T07:05:11.990Z,81.99
2022-09-23T07:06:11.962Z,82.09
2022-09-23T07:07:11.969Z,81.99
2022-09-23T07:08:11.957Z,82.50
2022-09-23T07:09:11.911Z,82.15
2022-09-23T07:10:11.922Z,82.05
2022-09-23T07:11:11.889Z,82.15
2022-09-23T07:12:11.913Z,82.26
2022-09-23T07:13:16.030Z,82.26
2022-09-23T07:14:11.870Z,82.15
2022-09-23T07:15:11.830Z,82.15
2022-09-23T07:16:11.859Z,82.15
2022-09-23T07:17:11.802Z,82.26
2022-09-23T07:18:11.789Z,82.22
2022-09-23T07:19:14.830Z,82.56
2022-09-23T07:20:14.775Z,82.63
2022-09-23T07:21:11.742Z,82.53
2022-09-23T07:22:11.737Z,82.53
2022-09-23T07:23:11.723Z,82.42
2022-09-23T07:24:11.705Z,82.42
2022-09-23T07:25:11.714Z,82.32
2022-09-23T07:26:11.716Z,82.32
2022-09-23T07:27:11.665Z,82.32
2022-09-23T07:28:11.655Z,82.42
2022-09-23T07:29:11.635Z,82.42
2022-09-23T07:30:22.786Z,82.63
2022-09-23T07:31:12.880Z,82.73
2022-09-23T07:32:14.230Z,82.93
2022-09-23T07:33:26.839Z,83.04
2022-09-23T07:34:12.579Z,83.14
2022-09-23T07:35:11.727Z,83.14
2022-09-23T07:36:11.548Z,83.14
2022-09-23T07:37:11.530Z,82.93
2022-09-23T07:38:11.520Z,82.90
2022-09-23T07:39:14.497Z,82.69
2022-09-23T07:40:14.593Z,82.79
2022-09-23T07:41:11.468Z,82.69
2022-09-23T07:42:11.468Z,82.79
2022-09-23T07:43:11.445Z,82.69
2022-09-23T07:44:11.438Z,82.79
2022-09-23T07:45:11.422Z,82.90
2022-09-23T07:46:11.497Z,82.79
2022-09-23T07:47:11.390Z,82.79
2022-09-23T07:48:11.380Z,82.55
2022-09-23T07:49:11.392Z,82.55
2022-09-23T07:50:11.351Z,82.45
2022-09-23T07:51:11.360Z,82.45
2022-09-23T07:52:11.350Z,82.51
2022-09-23T07:53:11.302Z,82.71
2022-09-23T07:54:11.320Z,82.71
2022-09-23T07:55:11.287Z,82.82
2022-09-23T07:56:11.262Z,82.82
2022-09-23T07:57:11.272Z,82.78
2022-09-23T07:58:11.250Z,82.57
2022-09-23T07:59:14.222Z,82.57
2022-09-23T08:00:14.223Z,82.57
2022-09-23T08:01:11.245Z,82.54
2022-09-23T08:02:11.217Z,82.64
2022-09-23T08:03:11.238Z,82.54
2022-09-23T08:04:11.170Z,82.54
2022-09-23T08:05:11.177Z,82.75
2022-09-23T08:06:11.138Z,82.64
2022-09-23T08:07:11.181Z,82.60
2022-09-23T08:08:11.109Z,82.70
2022-09-23T08:09:11.106Z,82.91
2022-09-23T08:10:11.078Z,82.77
2022-09-23T08:11:11.068Z,82.77
2022-09-23T08:12:15.802Z,82.97
2022-09-23T08:13:12.065Z,83.07
2022-09-23T08:14:11.040Z,83.65
2022-09-23T08:15:11.182Z,83.65
2022-09-23T08:16:11.052Z,83.54
2022-09-23T08:17:11.007Z,83.85
2022-09-23T08:18:10.969Z,83.85
2022-09-23T08:19:13.974Z,84.12
2022-09-23T08:20:14.224Z,84.01
2022-09-23T08:21:10.929Z,84.01
2022-09-23T08:22:10.926Z,83.92
2022-09-23T08:23:10.908Z,84.12
2022-09-23T08:24:10.903Z,84.12
2022-09-23T08:25:10.890Z,84.01
2022-09-23T08:26:19.414Z,83.98
2022-09-23T08:27:11.863Z,84.39
2022-09-23T08:28:10.860Z,84.49
2022-09-23T08:29:10.830Z,84.69
2022-09-23T08:30:10.831Z,84.49
2022-09-23T08:31:10.847Z,84.59
2022-09-23T08:32:10.834Z,84.75
2022-09-23T08:33:10.794Z,84.55
2022-09-23T08:34:10.775Z,84.66
2022-09-23T08:35:10.761Z,84.96
2022-09-23T08:36:10.743Z,85.02
2022-09-23T08:37:10.759Z,85.22
2022-09-23T08:38:10.728Z,85.13
2022-09-23T08:39:13.703Z,85.33
2022-09-23T08:40:13.766Z,85.43
2022-09-23T08:41:10.678Z,85.74
2022-09-23T08:42:10.704Z,85.63
2022-09-23T08:43:10.645Z,85.60
2022-09-23T08:44:10.636Z,85.90
2022-09-23T08:45:10.635Z,85.60
2022-09-23T08:46:10.681Z,85.19
2022-09-23T08:47:10.634Z,86.37
2022-09-23T08:48:12.948Z,86.06
2022-09-23T08:49:10.595Z,85.96
2022-09-23T08:50:10.591Z,85.86
2022-09-23T08:51:10.539Z,86.13
2022-09-23T08:52:10.528Z,86.33
2022-09-23T08:53:10.509Z,86.43
2022-09-23T08:54:10.503Z,86.22
2022-09-23T08:55:10.548Z,85.98
2022-09-23T08:56:10.480Z,86.19
2022-09-23T08:57:10.453Z,86.29
2022-09-23T08:58:26.563Z,86.45
2022-09-23T08:59:14.443Z,86.35
2022-09-23T09:00:13.500Z,86.86
2022-09-23T09:01:10.473Z,86.45
2022-09-23T09:02:10.437Z,86.65
2022-09-23T09:03:10.371Z,86.76
2022-09-23T09:04:12.628Z,86.51
2022-09-23T09:05:10.352Z,86.41
2022-09-23T09:06:10.390Z,86.61
2022-09-23T09:07:35.134Z,86.68
2022-09-23T09:08:11.320Z,86.88
2022-09-23T09:09:10.338Z,86.57
2022-09-23T09:10:10.284Z,86.98
2022-09-23T09:11:10.275Z,86.47
2022-09-23T09:12:10.285Z,86.57
2022-09-23T09:13:10.242Z,86.53
2022-09-23T09:14:10.245Z,86.53
2022-09-23T09:15:10.215Z,86.63
2022-09-23T09:16:10.262Z,86.63
2022-09-23T09:17:10.225Z,86.43
2022-09-23T09:18:10.176Z,86.33
2022-09-23T09:19:13.156Z,86.53
2022-09-23T09:20:13.184Z,86.59
2022-09-23T09:21:10.137Z,86.49
2022-09-23T09:22:10.124Z,86.39
2022-09-23T09:23:10.154Z,86.59
2022-09-23T09:24:10.156Z,86.59
2022-09-23T09:25:10.080Z,86.80
2022-09-23T09:26:10.069Z,86.59
2022-09-23T09:27:10.053Z,86.29
2022-09-23T09:28:10.037Z,86.15
2022-09-23T09:29:30.763Z,85.94
2022-09-23T09:30:11.018Z,85.84
2022-09-23T09:31:10.022Z,86.05
2022-09-23T09:32:09.992Z,86.05
2022-09-23T09:33:09.971Z,86.00
2022-09-23T09:34:09.956Z,85.80
2022-09-23T09:35:09.974Z,85.90
2022-09-23T09:36:09.930Z,86.10
2022-09-23T09:37:09.913Z,85.86
2022-09-23T09:38:09.903Z,86.07
2022-09-23T09:39:12.925Z,85.36
2022-09-23T09:40:12.956Z,85.56
2022-09-23T09:41:09.864Z,85.56
2022-09-23T09:42:09.855Z,85.52
2022-09-23T09:43:09.994Z,85.42
2022-09-23T09:44:09.864Z,85.27
2022-09-23T09:45:09.815Z,84.97
2022-09-23T09:46:09.916Z,84.87
2022-09-23T09:47:09.796Z,85.07
2022-09-23T09:48:09.766Z,84.87
2022-09-23T09:49:09.830Z,83.92
2022-09-23T09:50:09.990Z,83.61
2022-09-23T09:51:09.843Z,84.02
2022-09-23T09:52:09.717Z,83.41
2022-09-23T09:53:09.646Z,83.82
2022-09-23T09:54:09.627Z,83.41
2022-09-23T09:55:09.653Z,84.19
2022-09-23T09:56:09.608Z,83.78
2022-09-23T09:57:09.610Z,83.58
2022-09-23T09:58:09.576Z,83.07
2022-09-23T09:59:12.566Z,83.07
2022-09-23T10:00:12.606Z,82.22
2022-09-23T10:01:09.590Z,82.93
2022-09-23T10:02:09.526Z,83.23
2022-09-23T10:03:09.546Z,82.93
2022-09-23T10:04:09.525Z,82.69
2022-09-23T10:05:09.495Z,82.18
2022-09-23T10:06:09.497Z,82.18
2022-09-23T10:07:09.465Z,82.39
2022-09-23T10:08:09.437Z,80.57
2022-09-23T10:09:09.526Z,80.73
2022-09-23T10:10:22.252Z,79.72
2022-09-23T10:11:10.406Z,79.52
2022-09-23T10:12:09.387Z,79.62
2022-09-23T10:13:09.365Z,80.32
2022-09-23T10:14:09.362Z,81.03
2022-09-23T10:15:09.345Z,80.83
2022-09-23T10:16:09.355Z,81.54
2022-09-23T10:17:09.319Z,79.62
2022-09-23T10:18:09.297Z,80.93
2022-09-23T10:19:12.279Z,80.22
2022-09-23T10:20:12.315Z,80.02
2022-09-23T10:21:09.259Z,80.32
2022-09-23T10:22:09.246Z,80.32
2022-09-23T10:23:09.238Z,79.62
2022-09-23T10:24:09.261Z,79.32
2022-09-23T10:25:09.210Z,80.19
2022-09-23T10:26:09.181Z,79.28
2022-09-23T10:27:09.180Z,79.17
2022-09-23T10:28:09.172Z,78.27
2022-09-23T10:29:09.145Z,79.08
2022-09-23T10:30:09.182Z,78.27
2022-09-23T10:31:09.160Z,78.27
2022-09-23T10:32:09.102Z,79.14
2022-09-23T10:33:09.095Z,78.57
2022-09-23T10:34:09.073Z,78.06
2022-09-23T10:35:09.099Z,78.27
2022-09-23T10:36:09.097Z,77.36
2022-09-23T10:37:09.039Z,78.63
2022-09-23T10:38:09.024Z,79.44
2022-09-23T10:39:12.024Z,77.42
2022-09-23T10:40:12.090Z,78.03
2022-09-23T10:42:09.033Z,78.63
2022-09-23T10:43:08.962Z,78.13
2022-09-23T10:44:08.954Z,76.92
2022-09-23T10:45:08.933Z,76.11
2022-09-23T10:46:08.984Z,74.80
2022-09-23T10:47:08.917Z,76.18
2022-09-23T10:48:08.956Z,76.48
2022-09-23T10:49:08.876Z,76.07
2022-09-23T10:50:08.870Z,76.28
2022-09-23T10:51:08.858Z,77.75
2022-09-23T10:52:08.839Z,78.16
2022-09-23T10:53:08.830Z,77.45
2022-09-23T10:54:08.879Z,76.75
2022-09-23T10:55:08.837Z,75.13
2022-09-23T10:56:08.803Z,75.63
2022-09-23T10:57:08.783Z,76.84
2022-09-23T10:58:08.776Z,76.24
2022-09-23T10:59:11.794Z,73.22
2022-09-23T11:00:11.749Z,74.43
2022-09-23T11:01:08.814Z,75.23
2022-09-23T11:02:08.709Z,76.34
2022-09-23T11:03:08.709Z,76.95
2022-09-23T11:04:09.126Z,76.64
2022-09-23T11:05:08.812Z,76.54
2022-09-23T11:06:08.651Z,74.52
2022-09-23T11:07:08.648Z,76.34
2022-09-23T11:08:08.644Z,76.81
2022-09-23T11:09:08.623Z,76.61
2022-09-23T11:10:18.448Z,73.58
2022-09-23T11:11:09.772Z,75.10
2022-09-23T11:12:08.587Z,74.99
2022-09-23T11:13:08.575Z,77.21
2022-09-23T11:14:08.618Z,76.40
2022-09-23T11:15:08.549Z,75.10
2022-09-23T11:16:08.651Z,76.10
2022-09-23T11:17:08.641Z,75.20
2022-09-23T11:18:08.508Z,74.69
2022-09-23T11:19:11.499Z,75.10
2022-09-23T11:20:11.507Z,73.88
2022-09-23T11:21:08.464Z,72.17
2022-09-23T11:22:08.457Z,72.88
2022-09-23T11:23:08.486Z,74.32
2022-09-23T11:24:08.529Z,76.24
2022-09-23T11:25:08.406Z,74.52
2022-09-23T11:26:08.395Z,75.84
2022-09-23T11:27:08.393Z,74.63
2022-09-23T11:28:17.244Z,74.93
2022-09-23T11:29:08.377Z,76.10
2022-09-23T11:30:08.345Z,78.42
2022-09-23T11:31:08.430Z,77.92
2022-09-23T11:32:08.332Z,77.42
2022-09-23T11:33:08.318Z,77.51
2022-09-23T11:34:08.506Z,76.17
2022-09-23T11:35:08.290Z,75.36
2022-09-23T11:36:08.269Z,74.26
2022-09-23T11:37:08.260Z,75.06
2022-09-23T11:38:08.262Z,72.14
2022-09-23T11:39:11.272Z,73.14
2022-09-23T11:40:11.468Z,73.85
2022-09-23T11:41:08.277Z,71.57
2022-09-23T11:42:08.205Z,71.57
2022-09-23T11:43:08.196Z,71.77
2022-09-23T11:44:08.204Z,73.58
2022-09-23T11:45:08.156Z,75.06
2022-09-23T11:46:08.283Z,74.55
2022-09-23T11:47:08.135Z,75.76
2022-09-23T11:48:08.108Z,74.05
2022-09-23T11:49:08.106Z,72.34
2022-09-23T11:50:08.089Z,70.93
2022-09-23T11:51:08.079Z,71.84
2022-09-23T11:52:08.089Z,71.03
2022-09-23T11:53:08.103Z,71.03
2022-09-23T11:54:08.167Z,70.19
2022-09-23T11:55:18.736Z,71.60
2022-09-23T11:56:09.012Z,71.70
2022-09-23T11:57:08.024Z,69.89
2022-09-23T11:58:16.787Z,72.17
2022-09-23T11:59:12.169Z,71.97
2022-09-23T12:00:11.007Z,71.83
2022-09-23T12:01:07.987Z,72.24
2022-09-23T12:02:18.311Z,70.59
2022-09-23T12:03:09.110Z,69.59
2022-09-23T12:04:16.931Z,68.48
2022-09-23T12:05:08.999Z,66.97
2022-09-23T12:06:07.883Z,68.08
2022-09-23T12:07:07.877Z,68.78
2022-09-23T12:08:07.859Z,67.38
2022-09-23T12:09:07.935Z,67.78
2022-09-23T12:10:07.854Z,67.58
2022-09-23T12:11:07.830Z,67.18
2022-09-23T12:12:07.809Z,68.78
2022-09-23T12:13:07.816Z,68.68
2022-09-23T12:14:07.824Z,70.89
2022-09-23T12:15:07.822Z,69.12
2022-09-23T12:16:07.745Z,68.91
2022-09-23T12:17:07.772Z,67.31
2022-09-23T12:18:07.725Z,66.10
2022-09-23T12:19:10.724Z,65.30
2022-09-23T12:20:10.790Z,66.20
2022-09-23T12:21:07.684Z,66.91
2022-09-23T12:22:07.676Z,66.71
2022-09-23T12:23:07.657Z,67.21
2022-09-23T12:24:07.788Z,67.14
2022-09-23T12:25:07.657Z,66.33
2022-09-23T12:26:07.650Z,67.34
2022-09-23T12:27:07.620Z,67.84
2022-09-23T12:28:07.640Z,69.42
2022-09-23T12:29:07.570Z,71.06
2022-09-23T12:30:07.572Z,69.96
2022-09-23T12:31:07.596Z,70.36
2022-09-23T12:32:07.533Z,69.52
2022-09-23T12:33:07.547Z,68.51
2022-09-23T12:34:07.687Z,67.51
2022-09-23T12:35:07.495Z,67.41
2022-09-23T12:36:07.476Z,67.91
2022-09-23T12:37:07.465Z,67.64
2022-09-23T12:38:07.445Z,67.44
2022-09-23T12:39:10.466Z,67.51
2022-09-23T12:40:10.543Z,68.91
2022-09-23T12:41:07.407Z,69.12
2022-09-23T12:42:07.388Z,69.02
2022-09-23T12:43:07.388Z,68.21
2022-09-23T12:44:07.415Z,68.51
2022-09-23T12:45:07.381Z,66.91
2022-09-23T12:46:07.377Z,66.40
2022-09-23T12:47:07.321Z,67.21
2022-09-23T12:48:07.312Z,69.62
2022-09-23T12:49:07.312Z,69.42
2022-09-23T12:50:07.322Z,70.93
2022-09-23T12:51:07.273Z,71.83
2022-09-23T12:52:07.254Z,69.52
2022-09-23T12:53:07.253Z,69.12